createdAt,value
2019-02-28T00:00:07.400Z,8.00
2019-02-28T00:02:34.761Z,8.10
2019-02-28T00:05:05.764Z,8.10
2019-02-28T00:07:30.982Z,8.00
2019-02-28T00:09:58.264Z,8.10
2019-02-28T00:12:25.539Z,8.00
2019-02-28T00:14:52.793Z,8.00
2019-02-28T00:17:20.100Z,8.10
2019-02-28T00:19:47.439Z,8.10
2019-02-28T00:22:15.367Z,8.20
2019-02-28T00:24:42.733Z,8.10
2019-02-28T00:27:09.995Z,8.10
2019-02-28T00:29:37.235Z,8.10
2019-02-28T00:32:04.502Z,8.00
2019-02-28T00:34:31.751Z,8.00
2019-02-28T00:36:59.033Z,8.00
2019-02-28T00:39:26.345Z,8.00
2019-02-28T00:41:53.591Z,7.90
2019-02-28T00:44:20.842Z,8.00
2019-02-28T00:46:48.143Z,7.90
2019-02-28T00:49:15.393Z,7.80
2019-02-28T00:51:42.644Z,7.80
2019-02-28T00:54:09.949Z,7.80
2019-02-28T00:56:37.203Z,7.90
2019-02-28T00:59:04.453Z,7.90
2019-02-28T01:01:31.716Z,7.90
2019-02-28T01:03:59.110Z,7.90
2019-02-28T01:06:26.446Z,7.80
2019-02-28T01:08:56.119Z,7.80
2019-02-28T01:11:22.781Z,7.80
2019-02-28T01:13:50.027Z,7.80
2019-02-28T01:16:19.427Z,7.80
2019-02-28T01:18:46.377Z,7.80
2019-02-28T01:21:13.623Z,7.80
2019-02-28T01:23:40.934Z,7.90
2019-02-28T01:26:08.176Z,7.90
2019-02-28T01:28:35.444Z,7.80
2019-02-28T01:31:02.746Z,7.90
2019-02-28T01:33:29.993Z,7.90
2019-02-28T01:35:57.267Z,7.90
2019-02-28T01:38:25.182Z,7.90
2019-02-28T01:40:52.510Z,7.80
2019-02-28T01:43:19.752Z,7.80
2019-02-28T01:45:47.033Z,7.90
2019-02-28T01:48:14.267Z,7.90
2019-02-28T01:50:41.540Z,7.90
2019-02-28T01:53:08.782Z,7.90
2019-02-28T01:55:36.075Z,7.90
2019-02-28T01:58:03.327Z,7.90
2019-02-28T02:00:30.579Z,7.80
2019-02-28T02:02:57.864Z,7.90
2019-02-28T02:05:25.103Z,7.80
2019-02-28T02:07:52.414Z,7.80
2019-02-28T02:10:21.696Z,7.80
2019-02-28T02:12:50.228Z,7.80
2019-02-28T02:15:17.904Z,7.80
2019-02-28T02:17:45.168Z,7.70
2019-02-28T02:20:13.420Z,7.70
2019-02-28T02:22:44.287Z,7.60
2019-02-28T02:25:10.162Z,7.60
2019-02-28T02:27:37.415Z,7.50
2019-02-28T02:30:13.614Z,7.50
2019-02-28T02:32:38.708Z,7.30
2019-02-28T02:35:08.382Z,7.30
2019-02-28T02:37:35.831Z,7.20
2019-02-28T02:40:07.278Z,7.20
2019-02-28T02:42:34.549Z,7.10
2019-02-28T02:45:05.191Z,7.10
2019-02-28T02:47:32.438Z,7.10
2019-02-28T02:49:59.824Z,7.00
2019-02-28T02:52:30.400Z,6.80
2019-02-28T02:54:56.133Z,6.80
2019-02-28T02:57:23.325Z,6.80
2019-02-28T02:59:50.586Z,6.70
2019-02-28T03:02:17.838Z,6.70
2019-02-28T03:04:45.140Z,6.70
2019-02-28T03:07:12.385Z,6.60
2019-02-28T03:09:43.350Z,6.70
2019-02-28T03:12:08.714Z,6.70
2019-02-28T03:14:35.963Z,6.60
2019-02-28T03:17:09.907Z,6.60
2019-02-28T03:19:33.809Z,6.60
2019-02-28T03:22:01.358Z,6.60
2019-02-28T03:24:28.637Z,6.70
2019-02-28T03:26:55.889Z,6.60
2019-02-28T03:29:23.129Z,6.60
2019-02-28T03:31:56.461Z,6.60
2019-02-28T03:34:19.472Z,6.60
2019-02-28T03:36:55.045Z,6.60
2019-02-28T03:39:15.805Z,6.50
2019-02-28T03:41:43.074Z,6.50
2019-02-28T03:44:10.356Z,6.50
2019-02-28T03:46:37.608Z,6.50
2019-02-28T03:49:10.946Z,6.50
2019-02-28T03:51:33.996Z,6.50
2019-02-28T03:54:01.257Z,6.50
2019-02-28T03:56:28.560Z,6.40
2019-02-28T03:58:55.800Z,6.40
2019-02-28T04:01:23.045Z,6.40
2019-02-28T04:03:50.308Z,6.30
2019-02-28T04:06:17.560Z,6.40
2019-02-28T04:08:44.825Z,6.30
2019-02-28T04:11:12.096Z,6.30
2019-02-28T04:13:39.340Z,6.20
2019-02-28T04:16:09.015Z,6.20
2019-02-28T04:18:35.681Z,6.20
2019-02-28T04:21:02.960Z,6.10
2019-02-28T04:23:35.457Z,6.10
2019-02-28T04:25:59.329Z,6.00
2019-02-28T04:28:26.578Z,6.00
2019-02-28T04:30:54.189Z,5.90
2019-02-28T04:33:21.481Z,5.90
2019-02-28T04:35:48.753Z,5.90
2019-02-28T04:38:20.537Z,5.90
2019-02-28T04:40:45.096Z,5.90
2019-02-28T04:43:12.356Z,5.90
2019-02-28T04:45:39.764Z,5.80
2019-02-28T04:48:07.013Z,5.80
2019-02-28T04:50:34.255Z,7.60
2019-02-28T04:53:01.558Z,5.80
2019-02-28T04:55:30.550Z,5.90
2019-02-28T04:57:57.896Z,5.80
2019-02-28T05:00:25.176Z,5.80
2019-02-28T05:02:54.858Z,5.90
2019-02-28T05:05:21.551Z,5.90
2019-02-28T05:07:49.098Z,6.00
2019-02-28T05:10:19.267Z,6.00
2019-02-28T05:12:45.446Z,5.80
2019-02-28T05:15:13.500Z,5.80
2019-02-28T05:17:40.732Z,5.80
2019-02-28T05:20:10.727Z,5.80
2019-02-28T05:22:38.572Z,5.80
2019-02-28T05:25:07.677Z,5.90
2019-02-28T05:27:35.397Z,5.80
2019-02-28T05:30:17.940Z,5.80
2019-02-28T05:32:41.554Z,5.90
2019-02-28T05:35:08.781Z,5.90
2019-02-28T05:37:36.086Z,6.00
2019-02-28T05:40:07.048Z,5.90
2019-02-28T05:42:34.288Z,5.90
2019-02-28T05:45:01.585Z,6.00
2019-02-28T05:47:29.370Z,6.00
2019-02-28T05:49:57.924Z,5.90
2019-02-28T05:52:25.203Z,5.90
2019-02-28T05:54:52.505Z,5.80
2019-02-28T05:57:19.651Z,5.70
2019-02-28T05:59:46.914Z,5.70
2019-02-28T06:02:14.189Z,5.70
2019-02-28T06:04:41.452Z,5.70
2019-02-28T06:07:09.420Z,5.70
2019-02-28T06:09:36.831Z,5.80
2019-02-28T06:12:06.604Z,5.80
2019-02-28T06:14:33.199Z,5.80
2019-02-28T06:17:00.491Z,5.80
2019-02-28T06:19:27.769Z,5.80
2019-02-28T06:21:56.298Z,5.90
2019-02-28T06:24:24.085Z,5.90
2019-02-28T06:26:51.361Z,5.90
2019-02-28T06:29:18.634Z,5.90
2019-02-28T06:31:48.666Z,5.90
2019-02-28T06:34:15.086Z,6.00
2019-02-28T06:36:42.341Z,6.10
2019-02-28T06:39:09.605Z,6.10
2019-02-28T06:41:39.973Z,6.10
2019-02-28T06:44:05.964Z,6.10
2019-02-28T06:46:33.207Z,6.20
2019-02-28T06:49:05.809Z,6.20
2019-02-28T06:51:29.547Z,6.20
2019-02-28T06:53:56.860Z,6.50
2019-02-28T06:56:24.108Z,6.70
2019-02-28T06:58:51.377Z,6.80
2019-02-28T07:01:19.257Z,6.90
2019-02-28T07:03:53.500Z,6.80
2019-02-28T07:06:16.796Z,6.90
2019-02-28T07:08:44.040Z,7.10
2019-02-28T07:11:11.304Z,7.20
2019-02-28T07:13:39.849Z,7.40
2019-02-28T07:16:07.460Z,7.70
2019-02-28T07:18:34.715Z,7.90
2019-02-28T07:21:02.001Z,8.20
2019-02-28T07:23:30.030Z,8.40
2019-02-28T07:25:58.204Z,8.30
2019-02-28T07:28:25.480Z,8.40
2019-02-28T07:30:52.756Z,8.40
2019-02-28T07:33:20.041Z,8.40
2019-02-28T07:35:47.325Z,8.60
2019-02-28T07:38:14.576Z,9.00
2019-02-28T07:40:41.856Z,9.00
2019-02-28T07:43:12.132Z,8.80
2019-02-28T07:45:38.166Z,8.60
2019-02-28T07:48:05.485Z,8.40
2019-02-28T07:50:32.724Z,8.30
2019-02-28T07:52:59.967Z,8.20
2019-02-28T07:55:30.372Z,8.00
2019-02-28T07:57:56.641Z,7.80
2019-02-28T08:00:24.365Z,7.80
2019-02-28T08:02:51.625Z,7.70
2019-02-28T08:05:19.012Z,7.60
2019-02-28T08:07:50.536Z,7.80
2019-02-28T08:10:27.024Z,7.80
2019-02-28T08:12:58.475Z,7.90
2019-02-28T08:15:27.503Z,8.10
2019-02-28T08:17:54.769Z,8.10
2019-02-28T08:20:21.980Z,8.40
2019-02-28T08:22:49.396Z,8.50
2019-02-28T08:25:16.643Z,8.80
2019-02-28T08:27:43.888Z,9.00
2019-02-28T08:30:19.228Z,9.20
2019-02-28T08:32:47.119Z,9.40
2019-02-28T08:35:14.639Z,9.40
2019-02-28T08:37:41.884Z,9.80
2019-02-28T08:40:20.871Z,10.30
2019-02-28T08:42:49.900Z,10.40
2019-02-28T08:45:17.160Z,10.30
2019-02-28T08:47:44.501Z,10.70
2019-02-28T08:50:20.631Z,11.30
2019-02-28T08:52:48.465Z,11.70
2019-02-28T08:55:15.697Z,11.90
2019-02-28T08:57:42.940Z,11.90
2019-02-28T09:00:13.761Z,11.90
2019-02-28T09:02:41.094Z,11.90
2019-02-28T09:05:08.748Z,11.70
2019-02-28T09:07:41.386Z,11.80
2019-02-28T09:10:22.649Z,12.00
2019-02-28T09:12:50.210Z,11.80
2019-02-28T09:15:18.184Z,12.30
2019-02-28T09:17:45.889Z,12.50
2019-02-28T09:20:16.265Z,12.70
2019-02-28T09:22:43.521Z,13.00
2019-02-28T09:25:13.751Z,13.00
2019-02-28T09:27:41.296Z,12.80
2019-02-28T09:30:26.546Z,13.20
2019-02-28T09:32:52.968Z,13.00
2019-02-28T09:35:20.229Z,12.80
2019-02-28T09:37:47.501Z,13.00
2019-02-28T09:40:14.877Z,12.90
2019-02-28T09:42:44.466Z,12.80
2019-02-28T09:45:20.949Z,12.60
2019-02-28T09:47:48.261Z,13.00
2019-02-28T09:50:19.369Z,13.70
2019-02-28T09:52:46.253Z,14.20
2019-02-28T09:55:13.653Z,13.90
2019-02-28T09:57:40.895Z,14.00
2019-02-28T10:00:14.401Z,14.10
2019-02-28T10:02:43.932Z,14.40
2019-02-28T10:05:11.838Z,14.60
2019-02-28T10:07:39.087Z,14.60
2019-02-28T10:10:13.814Z,14.40
2019-02-28T10:12:43.087Z,14.60
2019-02-28T10:15:15.136Z,15.30
2019-02-28T10:17:42.437Z,15.10
2019-02-28T10:20:16.422Z,14.90
2019-02-28T10:22:44.277Z,15.10
2019-02-28T10:25:13.684Z,15.10
2019-02-28T10:27:40.950Z,15.70
2019-02-28T10:30:15.761Z,15.40
2019-02-28T10:32:43.332Z,15.60
2019-02-28T10:35:09.915Z,15.50
2019-02-28T10:37:37.252Z,14.80
2019-02-28T10:40:08.093Z,14.60
2019-02-28T10:42:37.094Z,14.60
2019-02-28T10:45:07.541Z,14.90
2019-02-28T10:47:34.792Z,14.70
2019-02-28T10:50:02.773Z,14.60
2019-02-28T10:52:30.694Z,14.50
2019-02-28T10:54:57.971Z,15.00
2019-02-28T10:57:25.272Z,15.20
2019-02-28T10:59:55.159Z,15.00
2019-02-28T11:02:21.572Z,14.90
2019-02-28T11:04:48.960Z,14.70
2019-02-28T11:07:16.209Z,14.20
2019-02-28T11:09:43.456Z,14.50
2019-02-28T11:12:10.731Z,14.40
2019-02-28T11:14:38.615Z,14.30
2019-02-28T11:17:13.408Z,14.60
2019-02-28T11:19:35.656Z,14.20
2019-02-28T11:22:04.932Z,13.90
2019-02-28T11:24:32.141Z,13.70
2019-02-28T11:26:59.416Z,14.10
2019-02-28T11:29:26.675Z,14.50
2019-02-28T11:31:54.995Z,15.00
2019-02-28T11:34:22.457Z,15.70
2019-02-28T11:36:49.724Z,16.30
2019-02-28T11:39:18.185Z,16.60
2019-02-28T11:41:45.456Z,17.00
2019-02-28T11:44:12.942Z,17.30
2019-02-28T11:46:40.315Z,17.30
2019-02-28T11:49:07.566Z,17.40
2019-02-28T11:51:34.818Z,17.00
2019-02-28T11:54:02.135Z,16.30
2019-02-28T11:56:29.515Z,16.50
2019-02-28T11:58:56.869Z,16.60
2019-02-28T12:01:24.159Z,16.80
2019-02-28T12:03:51.412Z,16.10
2019-02-28T12:06:18.712Z,16.70
2019-02-28T12:08:45.977Z,16.70
2019-02-28T12:11:13.212Z,17.60
2019-02-28T12:13:40.547Z,18.60
2019-02-28T12:16:07.805Z,18.80
2019-02-28T12:18:39.488Z,19.20
2019-02-28T12:21:04.993Z,19.70
2019-02-28T12:23:32.279Z,19.70
2019-02-28T12:25:59.584Z,19.00
2019-02-28T12:28:26.894Z,18.80
2019-02-28T12:30:54.146Z,19.50
2019-02-28T12:33:23.253Z,19.30
2019-02-28T12:35:50.478Z,20.10
2019-02-28T12:38:17.751Z,19.10
2019-02-28T12:40:45.651Z,19.30
2019-02-28T12:43:14.110Z,19.20
2019-02-28T12:45:45.466Z,19.00
2019-02-28T12:48:13.783Z,17.90
2019-02-28T12:50:41.203Z,17.40
2019-02-28T12:53:08.455Z,16.90
2019-02-28T12:55:39.052Z,16.90
2019-02-28T12:58:04.931Z,17.10
2019-02-28T13:00:35.833Z,16.80
2019-02-28T13:03:03.188Z,17.10
2019-02-28T13:05:30.748Z,16.60
2019-02-28T13:07:58.020Z,16.10
2019-02-28T13:10:27.962Z,15.40
2019-02-28T13:13:05.291Z,14.80
2019-02-28T13:15:24.238Z,14.50
2019-02-28T13:17:51.480Z,14.30
2019-02-28T13:20:21.456Z,14.20
2019-02-28T13:22:48.708Z,13.90
2019-02-28T13:25:19.336Z,13.70
2019-02-28T13:27:46.106Z,13.90
2019-02-28T13:30:24.891Z,13.90
2019-02-28T13:32:52.281Z,13.80
2019-02-28T13:35:22.560Z,13.60
2019-02-28T13:37:49.889Z,13.30
2019-02-28T13:40:17.335Z,13.30
2019-02-28T13:42:44.587Z,12.90
2019-02-28T13:45:19.331Z,12.50
2019-02-28T13:47:46.363Z,12.60
2019-02-28T13:50:18.067Z,12.90
2019-02-28T13:52:45.415Z,13.20
2019-02-28T13:55:14.183Z,13.50
2019-02-28T13:57:43.724Z,13.40
2019-02-28T14:00:23.819Z,13.40
2019-02-28T14:02:55.272Z,13.10
2019-02-28T14:05:23.950Z,13.00
2019-02-28T14:07:51.204Z,12.80
2019-02-28T14:10:19.130Z,13.10
2019-02-28T14:12:46.577Z,13.20
2019-02-28T14:15:25.031Z,12.90
2019-02-28T14:17:52.112Z,12.80
2019-02-28T14:20:19.393Z,12.90
2019-02-28T14:22:46.693Z,12.80
2019-02-28T14:25:14.079Z,12.80
2019-02-28T14:27:41.357Z,13.30
2019-02-28T14:30:13.605Z,13.80
2019-02-28T14:32:42.394Z,14.10
2019-02-28T14:35:15.267Z,14.10
2019-02-28T14:37:42.956Z,13.30
2019-02-28T14:40:14.572Z,12.40
2019-02-28T14:42:43.574Z,11.70
2019-02-28T14:45:19.188Z,11.20
2019-02-28T14:47:56.242Z,10.60
2019-02-28T14:50:18.882Z,10.50
2019-02-28T14:52:45.840Z,10.40
2019-02-28T14:55:15.835Z,10.10
2019-02-28T14:57:43.188Z,9.90
2019-02-28T15:00:16.092Z,9.70
2019-02-28T15:02:43.356Z,9.70
2019-02-28T15:05:12.139Z,9.60
2019-02-28T15:07:39.972Z,9.70
2019-02-28T15:10:10.902Z,9.70
2019-02-28T15:12:39.318Z,9.50
2019-02-28T15:15:10.069Z,9.20
2019-02-28T15:17:38.660Z,9.10
2019-02-28T15:20:07.640Z,9.00
2019-02-28T15:22:34.912Z,8.80
2019-02-28T15:25:04.350Z,8.60
2019-02-28T15:27:31.740Z,8.50
2019-02-28T15:29:59.800Z,8.30
2019-02-28T15:32:27.248Z,8.20
2019-02-28T15:34:54.500Z,8.10
2019-02-28T15:37:21.763Z,8.00
2019-02-28T15:39:49.778Z,8.00
2019-02-28T15:42:17.828Z,7.80
2019-02-28T15:44:45.085Z,7.80
2019-02-28T15:47:12.364Z,7.70
2019-02-28T15:49:41.801Z,7.70
2019-02-28T15:52:08.764Z,7.60
2019-02-28T15:54:36.048Z,7.60
2019-02-28T15:57:03.353Z,7.50
2019-02-28T15:59:30.646Z,7.40
2019-02-28T16:01:57.906Z,7.30
2019-02-28T16:04:26.314Z,7.20
2019-02-28T16:06:57.914Z,7.20
2019-02-28T16:09:23.313Z,7.10
2019-02-28T16:11:50.666Z,7.00
2019-02-28T16:14:18.012Z,7.00
2019-02-28T16:16:45.259Z,6.90
2019-02-28T16:19:12.774Z,6.80
2019-02-28T16:21:40.829Z,6.80
2019-02-28T16:24:08.872Z,6.70
2019-02-28T16:26:36.188Z,6.70
2019-02-28T16:29:03.428Z,6.60
2019-02-28T16:31:30.679Z,6.50
2019-02-28T16:34:07.984Z,6.50
2019-02-28T16:36:29.126Z,6.50
2019-02-28T16:38:56.550Z,6.50
2019-02-28T16:41:23.883Z,6.40
2019-02-28T16:43:52.319Z,6.30
2019-02-28T16:46:20.342Z,6.20
2019-02-28T16:48:47.659Z,6.10
2019-02-28T16:51:14.967Z,6.00
2019-02-28T16:53:42.328Z,6.00
2019-02-28T16:56:09.693Z,5.90
2019-02-28T16:58:37.095Z,5.80
2019-02-28T17:01:04.532Z,5.70
2019-02-28T17:03:31.935Z,5.60
2019-02-28T17:06:01.616Z,5.60
2019-02-28T17:08:30.319Z,5.50
2019-02-28T17:10:57.765Z,5.60
2019-02-28T17:13:29.492Z,5.50
2019-02-28T17:16:02.478Z,5.50
2019-02-28T17:18:35.012Z,5.40
2019-02-28T17:21:02.380Z,5.30
2019-02-28T17:23:29.687Z,5.30
2019-02-28T17:25:57.628Z,5.30
2019-02-28T17:28:35.847Z,5.20
2019-02-28T17:31:21.454Z,5.20
2019-02-28T17:33:48.766Z,5.20
2019-02-28T17:36:16.150Z,3.60
2019-02-28T17:38:43.471Z,5.00
2019-02-28T17:41:11.247Z,5.00
2019-02-28T17:43:38.629Z,5.00
2019-02-28T17:46:14.614Z,5.00
2019-02-28T17:49:03.576Z,5.00
2019-02-28T17:51:40.525Z,5.00
2019-02-28T17:54:28.011Z,5.00
2019-02-28T17:57:01.799Z,4.90
2019-02-28T17:59:41.984Z,4.80
2019-02-28T18:02:21.858Z,4.90
2019-02-28T18:05:07.775Z,4.80
2019-02-28T18:07:38.681Z,4.80
2019-02-28T18:10:15.557Z,4.70
2019-02-28T18:13:10.564Z,4.60
2019-02-28T18:15:42.120Z,4.60
2019-02-28T18:18:20.248Z,4.50
2019-02-28T18:21:10.545Z,4.50
2019-02-28T18:24:04.282Z,4.40
2019-02-28T18:26:39.192Z,4.40
2019-02-28T18:29:21.779Z,4.30
2019-02-28T18:31:49.016Z,4.30
2019-02-28T18:34:17.037Z,4.30
2019-02-28T18:36:45.406Z,4.30
2019-02-28T18:39:12.707Z,4.20
2019-02-28T18:41:42.311Z,4.20
2019-02-28T18:44:09.279Z,4.20
2019-02-28T18:46:36.638Z,4.10
2019-02-28T18:49:04.004Z,4.00
2019-02-28T18:51:31.291Z,4.00
2019-02-28T18:53:58.536Z,4.00
2019-02-28T18:56:25.801Z,4.00
2019-02-28T18:58:53.109Z,4.00
2019-02-28T19:01:20.375Z,4.00
2019-02-28T19:03:47.633Z,3.90
2019-02-28T19:06:14.939Z,3.90
2019-02-28T19:08:42.221Z,3.90
2019-02-28T19:11:09.552Z,3.90
2019-02-28T19:13:37.108Z,3.80
2019-02-28T19:16:04.357Z,3.90
2019-02-28T19:18:31.653Z,3.90
2019-02-28T19:20:58.906Z,3.80
2019-02-28T19:23:26.269Z,3.80
2019-02-28T19:25:53.545Z,3.80
2019-02-28T19:28:21.012Z,3.90
2019-02-28T19:30:48.283Z,3.90
2019-02-28T19:33:15.564Z,3.80
2019-02-28T19:35:42.809Z,3.80
2019-02-28T19:38:10.111Z,3.90
2019-02-28T19:40:37.389Z,3.90
2019-02-28T19:43:04.648Z,3.80
2019-02-28T19:45:39.905Z,3.80
2019-02-28T19:48:07.152Z,3.80
2019-02-28T19:50:34.414Z,3.70
2019-02-28T19:53:01.726Z,3.80
2019-02-28T19:55:29.094Z,3.70
2019-02-28T19:57:56.383Z,3.70
2019-02-28T20:00:23.650Z,3.70
2019-02-28T20:02:50.989Z,3.70
2019-02-28T20:05:18.372Z,3.70
2019-02-28T20:07:45.654Z,3.60
2019-02-28T20:10:16.118Z,3.70
2019-02-28T20:12:43.568Z,3.60
2019-02-28T20:15:13.219Z,3.60
2019-02-28T20:17:40.495Z,3.60
2019-02-28T20:20:11.097Z,3.60
2019-02-28T20:22:38.349Z,3.60
2019-02-28T20:25:10.098Z,3.60
2019-02-28T20:27:37.511Z,3.60
2019-02-28T20:30:10.861Z,3.50
2019-02-28T20:32:38.129Z,3.50
2019-02-28T20:35:06.989Z,3.50
2019-02-28T20:37:34.292Z,3.50
2019-02-28T20:40:01.566Z,3.50
2019-02-28T20:42:28.817Z,3.40
2019-02-28T20:44:56.134Z,3.40
2019-02-28T20:47:23.460Z,3.30
2019-02-28T20:49:50.834Z,3.20
2019-02-28T20:52:18.137Z,3.20
2019-02-28T20:54:45.382Z,3.20
2019-02-28T20:57:13.104Z,3.10
2019-02-28T20:59:40.396Z,3.10
2019-02-28T21:02:07.643Z,3.00
2019-02-28T21:04:36.277Z,3.00
2019-02-28T21:07:03.678Z,3.00
2019-02-28T21:09:31.014Z,2.90
2019-02-28T21:11:58.331Z,2.90
2019-02-28T21:14:25.644Z,2.90
2019-02-28T21:16:52.956Z,2.90
2019-02-28T21:19:20.355Z,2.90
2019-02-28T21:21:47.619Z,2.90
2019-02-28T21:24:14.880Z,3.00
2019-02-28T21:26:42.168Z,3.00
2019-02-28T21:29:09.412Z,3.00
2019-02-28T21:31:36.661Z,3.00
2019-02-28T21:34:03.980Z,3.00
2019-02-28T21:36:31.535Z,3.00
2019-02-28T21:38:58.780Z,3.00
2019-02-28T21:41:26.044Z,3.00
2019-02-28T21:43:53.340Z,3.00
2019-02-28T21:46:20.625Z,3.00
2019-02-28T21:48:47.891Z,2.90
2019-02-28T21:51:15.331Z,2.90
2019-02-28T21:53:42.590Z,2.90
2019-02-28T21:56:09.836Z,2.80
2019-02-28T21:58:37.173Z,2.70
2019-02-28T22:01:04.489Z,2.70
2019-02-28T22:03:31.767Z,2.70
2019-02-28T22:05:59.047Z,2.70
2019-02-28T22:08:26.301Z,2.70
2019-02-28T22:10:53.617Z,2.70
2019-02-28T22:13:20.901Z,2.60
2019-02-28T22:15:48.165Z,2.50
2019-02-28T22:18:15.946Z,2.50
2019-02-28T22:20:43.192Z,2.40
2019-02-28T22:23:10.445Z,2.30
2019-02-28T22:25:37.740Z,2.30
2019-02-28T22:28:05.236Z,2.30
2019-02-28T22:30:43.266Z,2.30
2019-02-28T22:33:28.712Z,2.20
2019-02-28T22:36:00.591Z,2.20
2019-02-28T22:38:27.845Z,2.20
2019-02-28T22:40:55.116Z,2.20
2019-02-28T22:43:22.405Z,2.20
2019-02-28T22:45:49.664Z,2.20
2019-02-28T22:48:16.932Z,2.10
2019-02-28T22:50:44.324Z,2.10
2019-02-28T22:53:11.584Z,2.20
2019-02-28T22:55:38.847Z,2.20
2019-02-28T22:58:07.666Z,2.20
2019-02-28T23:00:43.042Z,2.20
2019-02-28T23:03:10.330Z,2.20
2019-02-28T23:05:37.585Z,2.20
2019-02-28T23:08:04.839Z,2.10
2019-02-28T23:10:32.209Z,2.10
2019-02-28T23:12:59.483Z,2.10
2019-02-28T23:15:26.732Z,2.00
2019-02-28T23:17:54.018Z,2.10
2019-02-28T23:20:21.291Z,2.00
2019-02-28T23:22:48.573Z,2.00
2019-02-28T23:25:15.833Z,2.00
2019-02-28T23:27:43.121Z,1.90
2019-02-28T23:30:50.146Z,1.90
2019-02-28T23:33:17.488Z,1.90
2019-02-28T23:35:44.764Z,1.90
2019-02-28T23:38:12.017Z,1.90
2019-02-28T23:40:39.334Z,1.90
2019-02-28T23:43:06.593Z,1.90
2019-02-28T23:45:33.850Z,1.90
2019-02-28T23:48:01.159Z,1.90
2019-02-28T23:50:28.420Z,1.90
2019-02-28T23:52:55.676Z,1.80
2019-02-28T23:55:23.049Z,1.80
2019-02-28T23:57:50.324Z,1.70
